createdAt,value
2023-01-29T00:02:53.330Z,75.79
2023-01-29T00:08:00.475Z,75.91
2023-01-29T00:13:07.696Z,75.95
2023-01-29T00:18:15.068Z,75.94
2023-01-29T00:23:23.076Z,75.87
2023-01-29T00:28:30.296Z,75.80
2023-01-29T00:33:37.851Z,75.88
2023-01-29T00:38:45.107Z,75.69
2023-01-29T00:44:10.228Z,75.81
2023-01-29T00:49:17.416Z,75.78
2023-01-29T00:54:24.643Z,75.76
2023-01-29T00:59:32.086Z,75.79
2023-01-29T01:04:39.211Z,75.73
2023-01-29T01:10:04.087Z,75.68
2023-01-29T01:15:13.285Z,75.76
2023-01-29T01:20:21.305Z,75.75
2023-01-29T01:25:29.873Z,75.73
2023-01-29T01:30:37.062Z,75.71
2023-01-29T01:35:44.147Z,75.73
2023-01-29T01:40:51.290Z,75.72
2023-01-29T01:45:58.509Z,75.71
2023-01-29T01:51:07.865Z,75.81
2023-01-29T01:56:19.198Z,75.76
2023-01-29T02:01:29.160Z,75.79
2023-01-29T02:06:58.276Z,75.75
2023-01-29T02:12:07.467Z,75.75
2023-01-29T02:17:17.427Z,75.92
2023-01-29T02:22:48.346Z,75.86
2023-01-29T02:28:22.057Z,75.76
2023-01-29T02:33:41.449Z,75.76
2023-01-29T02:38:56.590Z,75.83
2023-01-29T02:44:13.143Z,75.77
2023-01-29T02:49:27.394Z,75.77
2023-01-29T02:54:41.654Z,75.75
2023-01-29T02:59:56.156Z,75.79
2023-01-29T03:05:10.454Z,75.77
2023-01-29T03:10:22.934Z,75.74
2023-01-29T03:15:38.962Z,75.83
2023-01-29T03:21:04.593Z,75.77
2023-01-29T03:26:30.525Z,75.80
2023-01-29T03:31:57.367Z,75.80
2023-01-29T03:37:09.406Z,75.75
2023-01-29T03:42:25.872Z,75.75
2023-01-29T03:47:45.075Z,75.87
2023-01-29T03:52:58.067Z,75.81
2023-01-29T03:58:15.540Z,75.89
2023-01-29T04:03:25.813Z,75.98
2023-01-29T04:08:39.406Z,75.86
2023-01-29T04:13:47.347Z,76.00
2023-01-29T04:18:58.010Z,75.97
2023-01-29T04:24:16.319Z,75.99
2023-01-29T04:29:42.013Z,76.07
2023-01-29T04:35:09.004Z,76.14
2023-01-29T04:40:27.974Z,76.01
2023-01-29T04:45:50.124Z,75.99
2023-01-29T04:51:05.033Z,76.06
2023-01-29T04:56:18.629Z,76.12
2023-01-29T05:01:30.184Z,76.09
2023-01-29T05:06:39.294Z,76.06
2023-01-29T05:11:49.063Z,76.28
2023-01-29T05:16:59.791Z,76.42
2023-01-29T05:22:11.120Z,76.36
2023-01-29T05:27:40.366Z,76.45
2023-01-29T05:32:47.586Z,76.42
2023-01-29T05:37:54.681Z,76.34
2023-01-29T05:43:02.014Z,76.38
2023-01-29T05:48:09.477Z,76.46
2023-01-29T05:53:16.684Z,76.48
2023-01-29T05:58:24.784Z,76.67
2023-01-29T06:03:31.938Z,76.85
2023-01-29T06:08:39.129Z,76.85
2023-01-29T06:13:48.008Z,76.96
2023-01-29T06:18:55.149Z,76.93
2023-01-29T06:24:02.435Z,76.95
2023-01-29T06:29:09.708Z,76.98
2023-01-29T06:34:16.968Z,77.05
2023-01-29T06:39:25.310Z,77.03
2023-01-29T06:44:32.598Z,77.08
2023-01-29T06:49:39.852Z,77.12
2023-01-29T06:54:47.523Z,77.13
2023-01-29T06:59:54.726Z,77.23
2023-01-29T07:05:06.082Z,77.27
2023-01-29T07:10:14.322Z,77.14
2023-01-29T07:15:21.912Z,77.17
2023-01-29T07:20:31.783Z,77.25
2023-01-29T07:25:39.223Z,77.19
2023-01-29T07:30:46.447Z,77.23
2023-01-29T07:35:56.505Z,77.43
2023-01-29T07:41:03.942Z,77.49
2023-01-29T07:46:14.890Z,77.50
2023-01-29T07:51:22.116Z,77.55
2023-01-29T07:56:29.346Z,77.51
2023-01-29T08:01:36.640Z,77.49
2023-01-29T08:06:45.531Z,77.56
2023-01-29T08:11:55.106Z,77.61
2023-01-29T08:17:02.975Z,77.74
2023-01-29T08:22:12.621Z,77.69
2023-01-29T08:27:20.129Z,77.60
2023-01-29T08:32:27.742Z,77.86
2023-01-29T08:37:35.254Z,77.75
2023-01-29T08:42:42.722Z,77.71
2023-01-29T08:47:51.261Z,77.77
2023-01-29T08:53:02.570Z,77.81
2023-01-29T08:58:11.087Z,77.82
2023-01-29T09:03:18.483Z,77.67
2023-01-29T09:08:25.410Z,77.82
2023-01-29T09:13:33.235Z,77.81
2023-01-29T09:18:40.768Z,77.82
2023-01-29T09:23:48.046Z,77.88
2023-01-29T09:28:55.305Z,78.05
2023-01-29T09:34:02.479Z,77.97
2023-01-29T09:39:09.723Z,78.04
2023-01-29T09:44:26.141Z,78.01
2023-01-29T09:49:37.970Z,78.06
2023-01-29T09:54:56.300Z,78.03
2023-01-29T10:00:02.219Z,78.17
2023-01-29T10:05:24.826Z,78.19
2023-01-29T10:10:49.700Z,78.19
2023-01-29T10:16:14.679Z,78.28
2023-01-29T10:21:43.731Z,78.22
2023-01-29T10:26:53.916Z,78.32
2023-01-29T10:32:06.149Z,78.25
2023-01-29T10:37:21.686Z,78.36
2023-01-29T10:42:39.683Z,78.43
2023-01-29T10:48:07.145Z,78.25
2023-01-29T10:53:31.614Z,78.36
2023-01-29T10:58:46.824Z,78.45
2023-01-29T11:04:02.303Z,78.58
2023-01-29T11:09:20.340Z,78.54
2023-01-29T11:14:29.903Z,78.57
2023-01-29T11:19:45.918Z,78.50
2023-01-29T11:25:11.285Z,78.56
2023-01-29T11:30:24.764Z,78.51
2023-01-29T11:35:33.559Z,78.48
2023-01-29T11:40:43.111Z,78.53
2023-01-29T11:45:52.207Z,78.48
2023-01-29T11:51:02.054Z,78.61
2023-01-29T11:56:21.897Z,78.47
2023-01-29T12:01:36.287Z,78.59
2023-01-29T12:06:50.711Z,78.72
2023-01-29T12:12:18.300Z,78.63
2023-01-29T12:17:28.399Z,78.66
2023-01-29T12:22:42.050Z,78.81
2023-01-29T12:27:54.688Z,78.81
2023-01-29T12:33:13.578Z,78.85
2023-01-29T12:38:22.313Z,78.93
2023-01-29T12:43:34.839Z,78.95
2023-01-29T12:48:45.371Z,78.94
2023-01-29T12:53:57.617Z,78.86
2023-01-29T12:59:15.316Z,78.92
2023-01-29T13:04:32.181Z,78.99
2023-01-29T13:09:44.473Z,79.19
2023-01-29T13:14:57.540Z,79.08
2023-01-29T13:20:11.871Z,79.07
2023-01-29T13:25:21.427Z,79.05
2023-01-29T13:30:33.414Z,79.04
2023-01-29T13:35:44.335Z,78.97
2023-01-29T13:40:55.181Z,79.28
2023-01-29T13:46:11.364Z,79.16
2023-01-29T13:51:23.300Z,79.19
2023-01-29T13:56:49.225Z,79.24
2023-01-29T14:02:21.513Z,79.10
2023-01-29T14:07:56.019Z,79.12
2023-01-29T14:13:46.556Z,79.22
2023-01-29T14:19:06.712Z,79.34
2023-01-29T14:24:21.068Z,79.34
2023-01-29T14:29:34.946Z,79.34
2023-01-29T14:34:51.732Z,79.34
2023-01-29T14:40:21.391Z,79.19
2023-01-29T14:45:32.206Z,79.29
2023-01-29T14:50:47.788Z,79.51
2023-01-29T14:56:04.242Z,79.40
2023-01-29T15:01:21.513Z,79.40
2023-01-29T15:06:39.041Z,79.46
2023-01-29T15:11:55.235Z,79.46
2023-01-29T15:17:23.498Z,79.49
2023-01-29T15:22:33.000Z,79.58
2023-01-29T15:27:45.206Z,79.52
2023-01-29T15:32:58.800Z,79.55
2023-01-29T15:38:15.769Z,79.57
2023-01-29T15:43:26.194Z,79.52
2023-01-29T15:48:37.446Z,79.49
2023-01-29T15:53:49.781Z,79.67
2023-01-29T15:59:00.423Z,79.75
2023-01-29T16:04:11.949Z,79.73
2023-01-29T16:09:24.987Z,79.91
2023-01-29T16:14:33.054Z,79.80
2023-01-29T16:19:38.776Z,79.80
2023-01-29T16:24:48.072Z,79.91
2023-01-29T16:29:56.092Z,80.10
2023-01-29T16:35:05.169Z,80.01
2023-01-29T16:40:26.823Z,80.05
2023-01-29T16:45:34.323Z,80.06
2023-01-29T16:50:54.336Z,80.11
2023-01-29T16:56:12.479Z,79.98
2023-01-29T17:01:20.409Z,80.14
2023-01-29T17:06:29.221Z,80.18
2023-01-29T17:11:39.816Z,80.26
2023-01-29T17:16:55.047Z,80.24
2023-01-29T17:22:05.873Z,80.38
2023-01-29T17:27:19.708Z,80.38
2023-01-29T17:32:44.417Z,80.40
2023-01-29T17:37:52.592Z,80.33
2023-01-29T17:43:00.524Z,80.38
2023-01-29T17:48:12.953Z,80.56
2023-01-29T17:53:21.352Z,80.48
2023-01-29T17:58:32.073Z,80.53
2023-01-29T18:03:39.493Z,80.59
2023-01-29T18:08:46.878Z,80.66
2023-01-29T18:13:54.253Z,80.78
2023-01-29T18:19:01.942Z,80.67
2023-01-29T18:24:09.908Z,80.66
2023-01-29T18:29:17.194Z,80.61
2023-01-29T18:34:24.693Z,80.82
2023-01-29T18:39:31.971Z,80.80
2023-01-29T18:44:39.279Z,80.73
2023-01-29T18:49:52.837Z,80.86
2023-01-29T18:55:01.318Z,80.72
2023-01-29T19:00:24.101Z,80.75
2023-01-29T19:05:41.831Z,80.79
2023-01-29T19:10:49.270Z,80.97
2023-01-29T19:15:59.391Z,81.03
2023-01-29T19:21:12.340Z,81.14
2023-01-29T19:26:22.174Z,80.95
2023-01-29T19:31:32.065Z,80.98
2023-01-29T19:36:43.217Z,81.12
2023-01-29T19:41:50.478Z,81.11
2023-01-29T19:46:57.867Z,81.16
2023-01-29T19:52:15.211Z,81.14
2023-01-29T19:57:22.723Z,81.11
2023-01-29T20:02:33.848Z,81.03
2023-01-29T20:07:42.771Z,81.06
2023-01-29T20:13:04.340Z,81.08
2023-01-29T20:18:13.989Z,81.05
2023-01-29T20:23:36.724Z,81.18
2023-01-29T20:28:46.293Z,81.17
2023-01-29T20:33:53.645Z,81.14
2023-01-29T20:39:01.016Z,81.14
2023-01-29T20:44:12.736Z,81.29
2023-01-29T20:49:21.988Z,81.20
2023-01-29T20:54:30.365Z,81.26
2023-01-29T20:59:38.119Z,81.25
2023-01-29T21:04:49.107Z,81.21
2023-01-29T21:09:56.264Z,81.28
2023-01-29T21:15:06.956Z,81.32
2023-01-29T21:20:15.688Z,81.34
2023-01-29T21:25:25.604Z,81.23
2023-01-29T21:30:33.055Z,81.25
2023-01-29T21:35:40.752Z,81.31
2023-01-29T21:40:48.101Z,81.30
2023-01-29T21:46:00.447Z,81.26
2023-01-29T21:51:08.856Z,81.42
2023-01-29T21:56:21.730Z,81.39
2023-01-29T22:01:38.066Z,81.26
2023-01-29T22:06:45.809Z,81.31
2023-01-29T22:11:53.278Z,81.46
2023-01-29T22:17:03.052Z,81.40
2023-01-29T22:22:13.738Z,81.55
2023-01-29T22:27:21.215Z,81.45
2023-01-29T22:32:28.579Z,81.51
2023-01-29T22:37:35.903Z,81.50
2023-01-29T22:42:43.296Z,81.41
2023-01-29T22:47:53.028Z,81.47
2023-01-29T22:53:04.703Z,81.46
2023-01-29T22:58:12.187Z,81.54
2023-01-29T23:03:21.689Z,81.63
2023-01-29T23:08:29.350Z,81.44
2023-01-29T23:13:36.798Z,81.51
2023-01-29T23:18:44.767Z,81.48
2023-01-29T23:23:54.424Z,81.47
2023-01-29T23:29:03.979Z,81.56
2023-01-29T23:34:11.415Z,81.60
2023-01-29T23:39:18.944Z,81.60
2023-01-29T23:44:26.151Z,81.54
2023-01-29T23:49:33.347Z,81.41
2023-01-29T23:54:40.560Z,81.61
2023-01-29T23:59:47.765Z,81.51
